sensor_id;sensor_type;location;lat;lon;timestamp;P1;durP1;ratioP1;P2;durP2;ratioP2
1174;SDS011;576;48.418;10.074;2022-08-01T00:00:10;5.07;;;4.70;;
1174;SDS011;576;48.418;10.074;2022-08-01T00:02:40;5.27;;;4.87;;
1174;SDS011;576;48.418;10.074;2022-08-01T00:05:09;5.23;;;4.83;;
1174;SDS011;576;48.418;10.074;2022-08-01T00:07:38;5.00;;;4.50;;
1174;SDS011;576;48.418;10.074;2022-08-01T00:10:07;4.30;;;4.00;;
1174;SDS011;576;48.418;10.074;2022-08-01T00:12:37;5.10;;;4.70;;
1174;SDS011;576;48.418;10.074;2022-08-01T00:15:06;5.33;;;4.30;;
1174;SDS011;576;48.418;10.074;2022-08-01T00:17:36;5.10;;;4.70;;
1174;SDS011;576;48.418;10.074;2022-08-01T00:20:07;5.50;;;5.00;;
1174;SDS011;576;48.418;10.074;2022-08-01T00:22:38;5.10;;;4.60;;
1174;SDS011;576;48.418;10.074;2022-08-01T00:25:06;4.10;;;3.80;;
1174;SDS011;576;48.418;10.074;2022-08-01T00:27:35;14.73;;;4.03;;
1174;SDS011;576;48.418;10.074;2022-08-01T00:30:03;5.60;;;3.90;;
1174;SDS011;576;48.418;10.074;2022-08-01T00:32:39;4.20;;;3.90;;
1174;SDS011;576;48.418;10.074;2022-08-01T00:35:09;4.80;;;4.40;;
1174;SDS011;576;48.418;10.074;2022-08-01T00:37:37;4.30;;;3.90;;
1174;SDS011;576;48.418;10.074;2022-08-01T00:40:06;4.07;;;3.77;;
1174;SDS011;576;48.418;10.074;2022-08-01T00:42:35;5.80;;;5.30;;
1174;SDS011;576;48.418;10.074;2022-08-01T00:45:09;6.20;;;5.07;;
1174;SDS011;576;48.418;10.074;2022-08-01T00:47:37;4.20;;;3.90;;
1174;SDS011;576;48.418;10.074;2022-08-01T00:50:06;4.47;;;4.07;;
1174;SDS011;576;48.418;10.074;2022-08-01T00:52:37;3.60;;;3.40;;
1174;SDS011;576;48.418;10.074;2022-08-01T00:55:07;3.93;;;3.67;;
1174;SDS011;576;48.418;10.074;2022-08-01T00:57:40;4.57;;;4.27;;
1174;SDS011;576;48.418;10.074;2022-08-01T01:00:29;4.17;;;3.87;;
1174;SDS011;576;48.418;10.074;2022-08-01T01:03:18;6.80;;;4.00;;
1174;SDS011;576;48.418;10.074;2022-08-01T01:05:59;5.00;;;3.97;;
1174;SDS011;576;48.418;10.074;2022-08-01T01:08:39;4.17;;;3.87;;
1174;SDS011;576;48.418;10.074;2022-08-01T01:11:13;4.60;;;4.20;;
1174;SDS011;576;48.418;10.074;2022-08-01T01:13:49;4.67;;;4.20;;
1174;SDS011;576;48.418;10.074;2022-08-01T01:16:24;3.60;;;3.40;;
1174;SDS011;576;48.418;10.074;2022-08-01T01:18:54;5.27;;;4.87;;
1174;SDS011;576;48.418;10.074;2022-08-01T01:21:31;4.17;;;3.87;;
1174;SDS011;576;48.418;10.074;2022-08-01T01:24:05;4.80;;;4.40;;
1174;SDS011;576;48.418;10.074;2022-08-01T01:26:45;4.90;;;4.03;;
1174;SDS011;576;48.418;10.074;2022-08-01T01:29:23;4.07;;;3.87;;
1174;SDS011;576;48.418;10.074;2022-08-01T01:32:17;4.20;;;3.90;;
1174;SDS011;576;48.418;10.074;2022-08-01T01:34:56;4.20;;;3.90;;
1174;SDS011;576;48.418;10.074;2022-08-01T01:37:26;3.53;;;3.33;;
1174;SDS011;576;48.418;10.074;2022-08-01T01:39:57;5.30;;;5.00;;
1174;SDS011;576;48.418;10.074;2022-08-01T01:42:26;3.53;;;3.33;;
1174;SDS011;576;48.418;10.074;2022-08-01T01:44:56;3.93;;;3.60;;
1174;SDS011;576;48.418;10.074;2022-08-01T01:47:25;4.83;;;4.40;;
1174;SDS011;576;48.418;10.074;2022-08-01T01:49:55;4.20;;;3.90;;
1174;SDS011;576;48.418;10.074;2022-08-01T01:52:27;4.50;;;4.10;;
1174;SDS011;576;48.418;10.074;2022-08-01T01:54:57;4.30;;;4.00;;
1174;SDS011;576;48.418;10.074;2022-08-01T01:57:27;6.33;;;3.70;;
1174;SDS011;576;48.418;10.074;2022-08-01T01:59:58;3.50;;;3.20;;
1174;SDS011;576;48.418;10.074;2022-08-01T02:02:30;4.43;;;4.03;;
1174;SDS011;576;48.418;10.074;2022-08-01T02:04:59;3.57;;;3.13;;
1174;SDS011;576;48.418;10.074;2022-08-01T02:07:29;3.83;;;3.53;;
1174;SDS011;576;48.418;10.074;2022-08-01T02:10:00;4.13;;;3.73;;
1174;SDS011;576;48.418;10.074;2022-08-01T02:12:30;3.20;;;3.00;;
1174;SDS011;576;48.418;10.074;2022-08-01T02:15:04;3.77;;;3.57;;
1174;SDS011;576;48.418;10.074;2022-08-01T02:17:33;3.03;;;2.83;;
1174;SDS011;576;48.418;10.074;2022-08-01T02:20:07;3.13;;;2.93;;
1174;SDS011;576;48.418;10.074;2022-08-01T02:22:37;3.10;;;2.90;;
1174;SDS011;576;48.418;10.074;2022-08-01T02:25:10;5.57;;;3.60;;
1174;SDS011;576;48.418;10.074;2022-08-01T02:27:45;3.20;;;2.93;;
1174;SDS011;576;48.418;10.074;2022-08-01T02:30:20;3.90;;;3.70;;
1174;SDS011;576;48.418;10.074;2022-08-01T02:32:52;3.53;;;3.20;;
1174;SDS011;576;48.418;10.074;2022-08-01T02:35:27;3.60;;;3.30;;
1174;SDS011;576;48.418;10.074;2022-08-01T02:37:58;3.23;;;3.03;;
1174;SDS011;576;48.418;10.074;2022-08-01T02:40:29;3.50;;;3.30;;
1174;SDS011;576;48.418;10.074;2022-08-01T02:43:01;3.57;;;3.27;;
1174;SDS011;576;48.418;10.074;2022-08-01T02:45:32;3.50;;;3.20;;
1174;SDS011;576;48.418;10.074;2022-08-01T02:48:04;4.90;;;3.07;;
1174;SDS011;576;48.418;10.074;2022-08-01T02:50:37;5.47;;;3.30;;
1174;SDS011;576;48.418;10.074;2022-08-01T02:53:07;4.30;;;4.00;;
1174;SDS011;576;48.418;10.074;2022-08-01T02:55:38;3.70;;;3.40;;
1174;SDS011;576;48.418;10.074;2022-08-01T02:58:08;3.30;;;3.10;;
1174;SDS011;576;48.418;10.074;2022-08-01T03:00:40;3.73;;;3.53;;
1174;SDS011;576;48.418;10.074;2022-08-01T03:03:14;3.23;;;3.03;;
1174;SDS011;576;48.418;10.074;2022-08-01T03:05:44;3.27;;;3.07;;
1174;SDS011;576;48.418;10.074;2022-08-01T03:08:14;3.30;;;3.10;;
1174;SDS011;576;48.418;10.074;2022-08-01T03:10:44;3.43;;;3.23;;
1174;SDS011;576;48.418;10.074;2022-08-01T03:13:14;4.17;;;3.77;;
1174;SDS011;576;48.418;10.074;2022-08-01T03:15:45;2.60;;;2.50;;
1174;SDS011;576;48.418;10.074;2022-08-01T03:18:14;3.93;;;3.63;;
1174;SDS011;576;48.418;10.074;2022-08-01T03:20:44;3.60;;;3.40;;
1174;SDS011;576;48.418;10.074;2022-08-01T03:23:13;3.93;;;3.60;;
1174;SDS011;576;48.418;10.074;2022-08-01T03:25:43;3.97;;;3.67;;
1174;SDS011;576;48.418;10.074;2022-08-01T03:28:13;3.53;;;3.30;;
1174;SDS011;576;48.418;10.074;2022-08-01T03:30:43;3.40;;;3.20;;
1174;SDS011;576;48.418;10.074;2022-08-01T03:33:14;3.40;;;3.20;;
1174;SDS011;576;48.418;10.074;2022-08-01T03:35:45;4.40;;;4.10;;
1174;SDS011;576;48.418;10.074;2022-08-01T03:38:16;3.70;;;3.40;;
1174;SDS011;576;48.418;10.074;2022-08-01T03:40:47;3.33;;;3.13;;
1174;SDS011;576;48.418;10.074;2022-08-01T03:43:21;3.10;;;2.90;;
1174;SDS011;576;48.418;10.074;2022-08-01T03:45:55;4.20;;;3.80;;
1174;SDS011;576;48.418;10.074;2022-08-01T03:48:35;5.73;;;3.40;;
1174;SDS011;576;48.418;10.074;2022-08-01T03:51:07;3.50;;;3.23;;
1174;SDS011;576;48.418;10.074;2022-08-01T03:53:36;3.20;;;3.00;;
1174;SDS011;576;48.418;10.074;2022-08-01T03:56:08;3.90;;;3.70;;
1174;SDS011;576;48.418;10.074;2022-08-01T03:58:38;3.40;;;3.20;;
1174;SDS011;576;48.418;10.074;2022-08-01T04:01:09;3.33;;;3.13;;
1174;SDS011;576;48.418;10.074;2022-08-01T04:03:41;3.70;;;3.37;;
1174;SDS011;576;48.418;10.074;2022-08-01T04:06:10;3.43;;;3.23;;
1174;SDS011;576;48.418;10.074;2022-08-01T04:08:40;3.97;;;3.67;;
1174;SDS011;576;48.418;10.074;2022-08-01T04:11:09;4.47;;;3.80;;
1174;SDS011;576;48.418;10.074;2022-08-01T04:13:38;5.93;;;4.03;;
1174;SDS011;576;48.418;10.074;2022-08-01T04:16:11;5.17;;;4.77;;
1174;SDS011;576;48.418;10.074;2022-08-01T04:18:39;5.63;;;5.13;;
1174;SDS011;576;48.418;10.074;2022-08-01T04:21:07;5.93;;;5.03;;
1174;SDS011;576;48.418;10.074;2022-08-01T04:23:35;4.00;;;3.70;;
1174;SDS011;576;48.418;10.074;2022-08-01T04:26:05;6.73;;;5.27;;
1174;SDS011;576;48.418;10.074;2022-08-01T04:28:36;4.10;;;3.80;;
1174;SDS011;576;48.418;10.074;2022-08-01T04:31:08;4.00;;;3.70;;
1174;SDS011;576;48.418;10.074;2022-08-01T04:33:40;4.40;;;4.10;;
1174;SDS011;576;48.418;10.074;2022-08-01T04:36:12;4.53;;;4.20;;
1174;SDS011;576;48.418;10.074;2022-08-01T04:38:42;3.97;;;3.70;;
1174;SDS011;576;48.418;10.074;2022-08-01T04:41:16;4.53;;;4.23;;
1174;SDS011;576;48.418;10.074;2022-08-01T04:43:46;4.70;;;4.27;;
1174;SDS011;576;48.418;10.074;2022-08-01T04:46:15;4.23;;;3.83;;
1174;SDS011;576;48.418;10.074;2022-08-01T04:48:45;4.73;;;4.30;;
1174;SDS011;576;48.418;10.074;2022-08-01T04:51:15;4.90;;;4.43;;
1174;SDS011;576;48.418;10.074;2022-08-01T04:53:48;4.73;;;4.33;;
1174;SDS011;576;48.418;10.074;2022-08-01T04:56:17;5.30;;;4.90;;
1174;SDS011;576;48.418;10.074;2022-08-01T04:58:47;4.83;;;4.40;;
1174;SDS011;576;48.418;10.074;2022-08-01T05:01:48;5.00;;;4.53;;
1174;SDS011;576;48.418;10.074;2022-08-01T05:04:18;6.13;;;5.17;;
1174;SDS011;576;48.418;10.074;2022-08-01T05:06:47;4.90;;;4.37;;
1174;SDS011;576;48.418;10.074;2022-08-01T05:09:15;5.07;;;4.67;;
1174;SDS011;576;48.418;10.074;2022-08-01T05:11:43;5.90;;;4.90;;
1174;SDS011;576;48.418;10.074;2022-08-01T05:14:11;4.27;;;3.97;;
1174;SDS011;576;48.418;10.074;2022-08-01T05:16:39;5.40;;;4.57;;
1174;SDS011;576;48.418;10.074;2022-08-01T05:19:08;6.00;;;4.63;;
1174;SDS011;576;48.418;10.074;2022-08-01T05:21:37;4.67;;;4.37;;
1174;SDS011;576;48.418;10.074;2022-08-01T05:24:06;4.67;;;4.37;;
1174;SDS011;576;48.418;10.074;2022-08-01T05:26:34;6.17;;;5.57;;
1174;SDS011;576;48.418;10.074;2022-08-01T05:29:03;5.17;;;4.60;;
1174;SDS011;576;48.418;10.074;2022-08-01T05:31:31;5.20;;;4.77;;
1174;SDS011;576;48.418;10.074;2022-08-01T05:34:00;5.37;;;4.87;;
1174;SDS011;576;48.418;10.074;2022-08-01T05:36:29;6.30;;;5.77;;
1174;SDS011;576;48.418;10.074;2022-08-01T05:38:59;5.50;;;5.10;;
1174;SDS011;576;48.418;10.074;2022-08-01T05:41:27;6.07;;;5.57;;
1174;SDS011;576;48.418;10.074;2022-08-01T05:43:55;6.33;;;5.83;;
1174;SDS011;576;48.418;10.074;2022-08-01T05:46:24;6.03;;;5.53;;
1174;SDS011;576;48.418;10.074;2022-08-01T05:48:53;6.70;;;6.10;;
1174;SDS011;576;48.418;10.074;2022-08-01T05:51:21;6.10;;;5.60;;
1174;SDS011;576;48.418;10.074;2022-08-01T05:53:50;7.20;;;6.17;;
1174;SDS011;576;48.418;10.074;2022-08-01T05:56:20;8.90;;;5.90;;
1174;SDS011;576;48.418;10.074;2022-08-01T05:58:49;7.50;;;5.87;;
1174;SDS011;576;48.418;10.074;2022-08-01T06:01:18;5.80;;;5.33;;
1174;SDS011;576;48.418;10.074;2022-08-01T06:03:46;6.80;;;5.07;;
1174;SDS011;576;48.418;10.074;2022-08-01T06:06:14;6.33;;;5.10;;
1174;SDS011;576;48.418;10.074;2022-08-01T06:08:43;5.00;;;4.60;;
1174;SDS011;576;48.418;10.074;2022-08-01T06:11:11;6.13;;;4.73;;
1174;SDS011;576;48.418;10.074;2022-08-01T06:13:41;5.27;;;4.87;;
1174;SDS011;576;48.418;10.074;2022-08-01T06:16:13;5.27;;;4.77;;
1174;SDS011;576;48.418;10.074;2022-08-01T06:18:42;5.07;;;4.67;;
1174;SDS011;576;48.418;10.074;2022-08-01T06:21:10;12.10;;;5.87;;
1174;SDS011;576;48.418;10.074;2022-08-01T06:23:38;5.47;;;4.97;;
1174;SDS011;576;48.418;10.074;2022-08-01T06:26:08;5.47;;;5.07;;
1174;SDS011;576;48.418;10.074;2022-08-01T06:28:38;4.50;;;4.10;;
1174;SDS011;576;48.418;10.074;2022-08-01T06:31:07;5.37;;;4.20;;
1174;SDS011;576;48.418;10.074;2022-08-01T06:33:37;5.00;;;4.60;;
1174;SDS011;576;48.418;10.074;2022-08-01T06:36:05;5.63;;;5.13;;
1174;SDS011;576;48.418;10.074;2022-08-01T06:38:34;5.13;;;4.53;;
1174;SDS011;576;48.418;10.074;2022-08-01T06:41:02;6.43;;;5.87;;
1174;SDS011;576;48.418;10.074;2022-08-01T06:43:34;5.03;;;4.63;;
1174;SDS011;576;48.418;10.074;2022-08-01T06:46:02;5.13;;;4.73;;
1174;SDS011;576;48.418;10.074;2022-08-01T06:48:35;4.60;;;4.20;;
1174;SDS011;576;48.418;10.074;2022-08-01T06:51:05;7.50;;;4.20;;
1174;SDS011;576;48.418;10.074;2022-08-01T06:53:40;4.77;;;4.37;;
1174;SDS011;576;48.418;10.074;2022-08-01T06:56:10;3.80;;;3.60;;
1174;SDS011;576;48.418;10.074;2022-08-01T06:58:38;3.80;;;3.50;;
1174;SDS011;576;48.418;10.074;2022-08-01T07:01:08;3.80;;;3.50;;
1174;SDS011;576;48.418;10.074;2022-08-01T07:03:36;3.50;;;3.20;;
1174;SDS011;576;48.418;10.074;2022-08-01T07:06:20;4.07;;;3.50;;
1174;SDS011;576;48.418;10.074;2022-08-01T07:08:49;3.43;;;3.23;;
1174;SDS011;576;48.418;10.074;2022-08-01T07:11:17;4.13;;;3.37;;
1174;SDS011;576;48.418;10.074;2022-08-01T07:13:46;4.20;;;3.90;;
1174;SDS011;576;48.418;10.074;2022-08-01T07:16:16;4.00;;;3.70;;
1174;SDS011;576;48.418;10.074;2022-08-01T07:18:45;4.60;;;4.30;;
1174;SDS011;576;48.418;10.074;2022-08-01T07:21:13;4.37;;;4.07;;
1174;SDS011;576;48.418;10.074;2022-08-01T07:24:01;3.73;;;3.43;;
1174;SDS011;576;48.418;10.074;2022-08-01T07:26:38;4.07;;;3.70;;
1174;SDS011;576;48.418;10.074;2022-08-01T07:29:19;4.37;;;4.07;;
1174;SDS011;576;48.418;10.074;2022-08-01T07:31:50;3.70;;;3.50;;
1174;SDS011;576;48.418;10.074;2022-08-01T07:34:19;3.30;;;3.00;;
1174;SDS011;576;48.418;10.074;2022-08-01T07:36:49;4.37;;;3.33;;
1174;SDS011;576;48.418;10.074;2022-08-01T07:39:17;3.87;;;3.23;;
1174;SDS011;576;48.418;10.074;2022-08-01T07:41:46;3.70;;;3.50;;
1174;SDS011;576;48.418;10.074;2022-08-01T07:44:33;3.57;;;3.23;;
1174;SDS011;576;48.418;10.074;2022-08-01T07:47:03;4.70;;;3.37;;
1174;SDS011;576;48.418;10.074;2022-08-01T07:49:32;5.60;;;3.20;;
1174;SDS011;576;48.418;10.074;2022-08-01T07:52:05;5.00;;;3.50;;
1174;SDS011;576;48.418;10.074;2022-08-01T07:54:34;5.30;;;3.50;;
1174;SDS011;576;48.418;10.074;2022-08-01T07:57:03;2.93;;;2.77;;
1174;SDS011;576;48.418;10.074;2022-08-01T07:59:31;3.33;;;3.13;;
1174;SDS011;576;48.418;10.074;2022-08-01T08:01:59;6.53;;;3.10;;
1174;SDS011;576;48.418;10.074;2022-08-01T08:04:29;4.10;;;3.50;;
1174;SDS011;576;48.418;10.074;2022-08-01T08:06:57;3.93;;;3.63;;
1174;SDS011;576;48.418;10.074;2022-08-01T08:09:26;3.73;;;3.37;;
1174;SDS011;576;48.418;10.074;2022-08-01T08:11:54;3.87;;;3.57;;
1174;SDS011;576;48.418;10.074;2022-08-01T08:14:22;3.30;;;3.10;;
1174;SDS011;576;48.418;10.074;2022-08-01T08:16:58;4.70;;;4.00;;
1174;SDS011;576;48.418;10.074;2022-08-01T08:19:27;4.40;;;3.60;;
1174;SDS011;576;48.418;10.074;2022-08-01T08:22:03;4.93;;;3.33;;
1174;SDS011;576;48.418;10.074;2022-08-01T08:24:32;4.00;;;3.70;;
1174;SDS011;576;48.418;10.074;2022-08-01T08:27:00;3.50;;;3.20;;
1174;SDS011;576;48.418;10.074;2022-08-01T08:29:30;4.17;;;3.40;;
1174;SDS011;576;48.418;10.074;2022-08-01T08:31:59;3.53;;;3.10;;
1174;SDS011;576;48.418;10.074;2022-08-01T08:34:30;3.17;;;2.97;;
1174;SDS011;576;48.418;10.074;2022-08-01T08:36:59;3.37;;;2.90;;
1174;SDS011;576;48.418;10.074;2022-08-01T08:39:28;4.77;;;3.57;;
1174;SDS011;576;48.418;10.074;2022-08-01T08:42:07;5.27;;;3.43;;
1174;SDS011;576;48.418;10.074;2022-08-01T08:44:37;6.40;;;3.60;;
1174;SDS011;576;48.418;10.074;2022-08-01T08:47:10;3.40;;;3.20;;
1174;SDS011;576;48.418;10.074;2022-08-01T08:49:46;3.10;;;2.70;;
1174;SDS011;576;48.418;10.074;2022-08-01T08:52:15;3.37;;;3.17;;
1174;SDS011;576;48.418;10.074;2022-08-01T08:54:46;3.67;;;2.53;;
1174;SDS011;576;48.418;10.074;2022-08-01T08:57:15;3.40;;;3.10;;
1174;SDS011;576;48.418;10.074;2022-08-01T08:59:46;3.47;;;3.20;;
1174;SDS011;576;48.418;10.074;2022-08-01T09:02:18;4.93;;;3.27;;
1174;SDS011;576;48.418;10.074;2022-08-01T09:04:48;3.10;;;2.90;;
1174;SDS011;576;48.418;10.074;2022-08-01T09:07:16;4.30;;;3.23;;
1174;SDS011;576;48.418;10.074;2022-08-01T09:09:45;4.03;;;3.17;;
1174;SDS011;576;48.418;10.074;2022-08-01T09:12:17;3.80;;;3.10;;
1174;SDS011;576;48.418;10.074;2022-08-01T09:14:46;3.00;;;2.80;;
1174;SDS011;576;48.418;10.074;2022-08-01T09:17:16;3.70;;;3.40;;
1174;SDS011;576;48.418;10.074;2022-08-01T09:19:46;4.73;;;3.37;;
1174;SDS011;576;48.418;10.074;2022-08-01T09:22:21;4.30;;;3.97;;
1174;SDS011;576;48.418;10.074;2022-08-01T09:25:00;3.20;;;3.00;;
1174;SDS011;576;48.418;10.074;2022-08-01T09:27:30;3.30;;;2.80;;
1174;SDS011;576;48.418;10.074;2022-08-01T09:30:09;3.30;;;3.10;;
1174;SDS011;576;48.418;10.074;2022-08-01T09:32:52;4.10;;;2.70;;
1174;SDS011;576;48.418;10.074;2022-08-01T09:35:25;3.00;;;2.80;;
1174;SDS011;576;48.418;10.074;2022-08-01T09:38:15;3.00;;;2.80;;
1174;SDS011;576;48.418;10.074;2022-08-01T09:40:45;3.67;;;3.23;;
1174;SDS011;576;48.418;10.074;2022-08-01T09:43:15;2.70;;;2.50;;
1174;SDS011;576;48.418;10.074;2022-08-01T09:45:44;2.80;;;2.60;;
1174;SDS011;576;48.418;10.074;2022-08-01T09:48:16;3.60;;;2.67;;
1174;SDS011;576;48.418;10.074;2022-08-01T09:50:46;3.13;;;2.20;;
1174;SDS011;576;48.418;10.074;2022-08-01T09:53:15;4.53;;;2.90;;
1174;SDS011;576;48.418;10.074;2022-08-01T09:56:01;2.63;;;2.43;;
1174;SDS011;576;48.418;10.074;2022-08-01T09:58:50;3.40;;;3.10;;
1174;SDS011;576;48.418;10.074;2022-08-01T10:01:26;2.90;;;2.70;;
1174;SDS011;576;48.418;10.074;2022-08-01T10:04:06;2.40;;;2.27;;
1174;SDS011;576;48.418;10.074;2022-08-01T10:06:39;2.50;;;2.30;;
1174;SDS011;576;48.418;10.074;2022-08-01T10:09:10;2.87;;;2.40;;
1174;SDS011;576;48.418;10.074;2022-08-01T10:11:41;2.60;;;2.40;;
1174;SDS011;576;48.418;10.074;2022-08-01T10:14:10;2.67;;;2.57;;
1174;SDS011;576;48.418;10.074;2022-08-01T10:16:44;2.40;;;2.30;;
1174;SDS011;576;48.418;10.074;2022-08-01T10:19:22;2.43;;;2.23;;
1174;SDS011;576;48.418;10.074;2022-08-01T10:21:56;2.80;;;2.60;;
1174;SDS011;576;48.418;10.074;2022-08-01T10:24:27;2.47;;;2.37;;
1174;SDS011;576;48.418;10.074;2022-08-01T10:26:59;2.20;;;2.00;;
1174;SDS011;576;48.418;10.074;2022-08-01T10:29:42;2.70;;;2.37;;
1174;SDS011;576;48.418;10.074;2022-08-01T10:32:33;2.33;;;2.13;;
1174;SDS011;576;48.418;10.074;2022-08-01T10:35:05;6.70;;;2.70;;
1174;SDS011;576;48.418;10.074;2022-08-01T10:37:42;2.60;;;2.40;;
1174;SDS011;576;48.418;10.074;2022-08-01T10:40:18;2.60;;;2.40;;
1174;SDS011;576;48.418;10.074;2022-08-01T10:43:02;2.40;;;2.30;;
1174;SDS011;576;48.418;10.074;2022-08-01T10:45:31;2.90;;;2.57;;
1174;SDS011;576;48.418;10.074;2022-08-01T10:48:01;2.03;;;1.93;;
1174;SDS011;576;48.418;10.074;2022-08-01T10:50:32;3.10;;;2.00;;
1174;SDS011;576;48.418;10.074;2022-08-01T10:53:14;3.43;;;2.30;;
1174;SDS011;576;48.418;10.074;2022-08-01T10:55:57;2.60;;;2.20;;
1174;SDS011;576;48.418;10.074;2022-08-01T10:58:31;2.63;;;2.27;;
1174;SDS011;576;48.418;10.074;2022-08-01T11:01:16;2.50;;;2.30;;
1174;SDS011;576;48.418;10.074;2022-08-01T11:04:05;2.33;;;2.13;;
1174;SDS011;576;48.418;10.074;2022-08-01T11:09:40;2.53;;;2.20;;
1174;SDS011;576;48.418;10.074;2022-08-01T11:12:17;3.00;;;2.80;;
1174;SDS011;576;48.418;10.074;2022-08-01T11:17:56;2.30;;;2.10;;
1174;SDS011;576;48.418;10.074;2022-08-01T11:20:30;2.10;;;2.00;;
1174;SDS011;576;48.418;10.074;2022-08-01T11:26:13;2.40;;;2.30;;
1174;SDS011;576;48.418;10.074;2022-08-01T11:29:12;2.30;;;2.13;;
1174;SDS011;576;48.418;10.074;2022-08-01T11:31:47;2.80;;;2.60;;
1174;SDS011;576;48.418;10.074;2022-08-01T11:34:16;2.70;;;2.50;;
1174;SDS011;576;48.418;10.074;2022-08-01T11:36:45;2.47;;;2.27;;
1174;SDS011;576;48.418;10.074;2022-08-01T11:39:24;2.50;;;2.30;;
1174;SDS011;576;48.418;10.074;2022-08-01T11:41:56;2.43;;;2.33;;
1174;SDS011;576;48.418;10.074;2022-08-01T11:44:49;2.63;;;2.47;;
1174;SDS011;576;48.418;10.074;2022-08-01T11:47:18;3.00;;;2.73;;
1174;SDS011;576;48.418;10.074;2022-08-01T11:50:31;5.23;;;2.87;;
1174;SDS011;576;48.418;10.074;2022-08-01T11:53:01;2.80;;;2.60;;
1174;SDS011;576;48.418;10.074;2022-08-01T11:55:31;2.70;;;2.50;;
1174;SDS011;576;48.418;10.074;2022-08-01T11:58:03;3.13;;;2.90;;
1174;SDS011;576;48.418;10.074;2022-08-01T12:00:49;2.90;;;2.70;;
1174;SDS011;576;48.418;10.074;2022-08-01T12:03:22;2.40;;;2.20;;
1174;SDS011;576;48.418;10.074;2022-08-01T12:05:59;3.07;;;2.77;;
1174;SDS011;576;48.418;10.074;2022-08-01T12:08:32;4.40;;;2.73;;
1174;SDS011;576;48.418;10.074;2022-08-01T12:11:06;2.80;;;2.20;;
1174;SDS011;576;48.418;10.074;2022-08-01T12:13:42;3.60;;;2.40;;
1174;SDS011;576;48.418;10.074;2022-08-01T12:16:11;3.63;;;3.33;;
1174;SDS011;576;48.418;10.074;2022-08-01T12:18:39;3.13;;;2.90;;
1174;SDS011;576;48.418;10.074;2022-08-01T12:21:08;2.50;;;2.40;;
1174;SDS011;576;48.418;10.074;2022-08-01T12:23:37;2.57;;;2.47;;
1174;SDS011;576;48.418;10.074;2022-08-01T12:26:05;3.00;;;2.50;;
1174;SDS011;576;48.418;10.074;2022-08-01T12:28:54;3.20;;;2.90;;
1174;SDS011;576;48.418;10.074;2022-08-01T12:31:30;3.07;;;2.83;;
1174;SDS011;576;48.418;10.074;2022-08-01T12:36:55;2.30;;;2.10;;
1174;SDS011;576;48.418;10.074;2022-08-01T12:39:29;2.47;;;2.27;;
1174;SDS011;576;48.418;10.074;2022-08-01T12:42:00;2.23;;;2.13;;
1174;SDS011;576;48.418;10.074;2022-08-01T12:44:34;2.30;;;2.10;;
1174;SDS011;576;48.418;10.074;2022-08-01T12:47:02;2.87;;;2.67;;
1174;SDS011;576;48.418;10.074;2022-08-01T12:49:33;2.60;;;2.50;;
1174;SDS011;576;48.418;10.074;2022-08-01T12:52:04;2.27;;;2.07;;
1174;SDS011;576;48.418;10.074;2022-08-01T12:57:35;3.37;;;3.17;;
1174;SDS011;576;48.418;10.074;2022-08-01T13:00:13;3.40;;;2.83;;
1174;SDS011;576;48.418;10.074;2022-08-01T13:02:43;3.17;;;2.40;;
1174;SDS011;576;48.418;10.074;2022-08-01T13:05:13;2.47;;;2.30;;
1174;SDS011;576;48.418;10.074;2022-08-01T13:07:43;2.50;;;2.30;;
1174;SDS011;576;48.418;10.074;2022-08-01T13:10:24;3.40;;;2.53;;
1174;SDS011;576;48.418;10.074;2022-08-01T13:12:55;2.23;;;2.13;;
1174;SDS011;576;48.418;10.074;2022-08-01T13:15:27;2.83;;;2.23;;
1174;SDS011;576;48.418;10.074;2022-08-01T13:17:59;4.73;;;2.50;;
1174;SDS011;576;48.418;10.074;2022-08-01T13:20:30;2.33;;;2.23;;
1174;SDS011;576;48.418;10.074;2022-08-01T13:23:13;2.13;;;2.03;;
1174;SDS011;576;48.418;10.074;2022-08-01T13:26:04;2.13;;;2.03;;
1174;SDS011;576;48.418;10.074;2022-08-01T13:28:33;2.30;;;2.20;;
1174;SDS011;576;48.418;10.074;2022-08-01T13:31:07;2.43;;;2.30;;
1174;SDS011;576;48.418;10.074;2022-08-01T13:33:40;2.03;;;1.90;;
1174;SDS011;576;48.418;10.074;2022-08-01T13:36:09;1.90;;;1.80;;
1174;SDS011;576;48.418;10.074;2022-08-01T13:38:39;1.90;;;1.80;;
1174;SDS011;576;48.418;10.074;2022-08-01T13:41:26;2.13;;;1.80;;
1174;SDS011;576;48.418;10.074;2022-08-01T13:43:54;2.90;;;2.00;;
1174;SDS011;576;48.418;10.074;2022-08-01T13:46:26;2.20;;;2.00;;
1174;SDS011;576;48.418;10.074;2022-08-01T13:48:54;2.40;;;2.20;;
1174;SDS011;576;48.418;10.074;2022-08-01T13:51:30;2.20;;;2.00;;
1174;SDS011;576;48.418;10.074;2022-08-01T13:53:59;1.87;;;1.77;;
1174;SDS011;576;48.418;10.074;2022-08-01T13:56:27;2.23;;;2.13;;
1174;SDS011;576;48.418;10.074;2022-08-01T13:58:56;2.47;;;2.07;;
1174;SDS011;576;48.418;10.074;2022-08-01T14:01:24;3.20;;;2.20;;
1174;SDS011;576;48.418;10.074;2022-08-01T14:03:59;2.10;;;1.93;;
1174;SDS011;576;48.418;10.074;2022-08-01T14:06:28;2.17;;;2.00;;
1174;SDS011;576;48.418;10.074;2022-08-01T14:08:56;2.13;;;1.97;;
1174;SDS011;576;48.418;10.074;2022-08-01T14:11:26;2.33;;;1.90;;
1174;SDS011;576;48.418;10.074;2022-08-01T14:14:02;2.87;;;2.67;;
1174;SDS011;576;48.418;10.074;2022-08-01T14:16:35;2.20;;;2.10;;
1174;SDS011;576;48.418;10.074;2022-08-01T14:19:04;3.57;;;2.30;;
1174;SDS011;576;48.418;10.074;2022-08-01T14:21:32;2.60;;;2.40;;
1174;SDS011;576;48.418;10.074;2022-08-01T14:24:01;2.70;;;1.90;;
1174;SDS011;576;48.418;10.074;2022-08-01T14:26:29;2.13;;;2.03;;
1174;SDS011;576;48.418;10.074;2022-08-01T14:28:57;2.13;;;1.93;;
1174;SDS011;576;48.418;10.074;2022-08-01T14:31:25;2.43;;;2.30;;
1174;SDS011;576;48.418;10.074;2022-08-01T14:34:01;3.37;;;2.00;;
1174;SDS011;576;48.418;10.074;2022-08-01T14:36:29;2.23;;;2.13;;
1174;SDS011;576;48.418;10.074;2022-08-01T14:39:04;2.40;;;2.20;;
1174;SDS011;576;48.418;10.074;2022-08-01T14:41:40;1.97;;;1.87;;
1174;SDS011;576;48.418;10.074;2022-08-01T14:44:10;3.30;;;2.20;;
1174;SDS011;576;48.418;10.074;2022-08-01T14:46:39;2.20;;;2.10;;
1174;SDS011;576;48.418;10.074;2022-08-01T14:49:25;2.97;;;2.10;;
1174;SDS011;576;48.418;10.074;2022-08-01T14:51:53;3.67;;;2.67;;
1174;SDS011;576;48.418;10.074;2022-08-01T14:54:21;2.40;;;1.80;;
1174;SDS011;576;48.418;10.074;2022-08-01T14:56:54;2.30;;;2.20;;
1174;SDS011;576;48.418;10.074;2022-08-01T14:59:23;2.17;;;1.97;;
1174;SDS011;576;48.418;10.074;2022-08-01T15:01:51;1.90;;;1.80;;
1174;SDS011;576;48.418;10.074;2022-08-01T15:04:19;4.27;;;1.90;;
1174;SDS011;576;48.418;10.074;2022-08-01T15:06:49;3.10;;;2.80;;
1174;SDS011;576;48.418;10.074;2022-08-01T15:09:17;3.33;;;3.03;;
1174;SDS011;576;48.418;10.074;2022-08-01T15:11:45;3.00;;;2.77;;
1174;SDS011;576;48.418;10.074;2022-08-01T15:14:14;4.43;;;2.63;;
1174;SDS011;576;48.418;10.074;2022-08-01T15:16:59;3.27;;;3.07;;
1174;SDS011;576;48.418;10.074;2022-08-01T15:19:27;5.50;;;3.23;;
1174;SDS011;576;48.418;10.074;2022-08-01T15:21:57;6.93;;;3.57;;
1174;SDS011;576;48.418;10.074;2022-08-01T15:24:27;5.90;;;4.00;;
1174;SDS011;576;48.418;10.074;2022-08-01T15:26:55;7.00;;;4.17;;
1174;SDS011;576;48.418;10.074;2022-08-01T15:29:23;9.13;;;4.57;;
1174;SDS011;576;48.418;10.074;2022-08-01T15:31:51;10.43;;;4.40;;
1174;SDS011;576;48.418;10.074;2022-08-01T15:34:19;5.77;;;4.60;;
1174;SDS011;576;48.418;10.074;2022-08-01T15:36:48;4.93;;;4.20;;
1174;SDS011;576;48.418;10.074;2022-08-01T15:39:18;9.10;;;4.50;;
1174;SDS011;576;48.418;10.074;2022-08-01T15:41:46;8.47;;;4.67;;
1174;SDS011;576;48.418;10.074;2022-08-01T15:44:14;7.97;;;4.57;;
1174;SDS011;576;48.418;10.074;2022-08-01T15:46:44;7.77;;;4.37;;
1174;SDS011;576;48.418;10.074;2022-08-01T15:49:12;6.47;;;3.97;;
1174;SDS011;576;48.418;10.074;2022-08-01T15:51:41;5.03;;;3.70;;
1174;SDS011;576;48.418;10.074;2022-08-01T15:54:10;5.97;;;4.40;;
1174;SDS011;576;48.418;10.074;2022-08-01T15:56:41;5.80;;;4.27;;
1174;SDS011;576;48.418;10.074;2022-08-01T15:59:10;4.17;;;3.50;;